Pagina principală
METAR-TAF:

METAR-TAF

Aeroporturi :

Kwajalein, Insulele Marshall

Latitudine: 08-43N, longitudine: 167-44E, elevație: 3 m

Observații meteo curente

Raportul a fost făcut în urmă cu 18 de minute, la 15:40 UTC
Vânt 7 kt de la Nord-est
Temperatură 27°C
Umiditate 89%
Presiune 1010 hPa
Vizibilitate: 16.1 km
Nori împrăștiați la o înălțime de 1700 picior
Nori împrăștiați la o înălțime de 2100 picior
Nori împrăștiați la o înălțime de 3400 picior

METAR: PKWA 251540Z AUTO 05007KT 10SM SCT017 SCT021 SCT034 27/25 A2983 RMK AO2 T02740245

Ora: 03:58 (15:58 UTC)

Prognoză

Raportul a fost făcut în urmă cu 4 ore și 25 de minute, la 11:33 UTC
Prognoză valabilă de la 25 ora 12 UTC la 26 ora 12 UTC
Vânt 10 kt de la Est
Vizibilitate: 10 km
Nori puțini la o înălțime de 1500 picior
Nori împrăștiați la o înălțime de 2500 picior
Nori împrăștiați la o înălțime de 5000 picior
averse în apropiere

TAF: PKWA 251133Z 2512/2612 09010KT P6SM VCSH FEW015 SCT025 SCT050

Observații și prognoze meteo pentru peste 4.000 de aeroporturi (rapoarte METAR și TAF).

Stațiile disponibile sunt reprezentate pe hartă prin puncte galbene și roșii.

Țineți indicatorul mouse-ului pe punctul dorit pentru a vedea denumirea stației.

Apoi, faceți clic pentru a vedea observațiile și prognozele meteorologice.

Pentru a schimba harta: Pentru mărire, faceți clic pe butoanele verzi cu cruce neagră; pentru micșorare, pe butonul verde cu o liniuță; pentru hărți învecinate, pe săgețile verzi.


METAR-TAF: